createdAt,value
2018-09-20T00:01:09.295Z,5.50
2018-09-20T00:03:38.489Z,5.60
2018-09-20T00:06:08.383Z,5.80
2018-09-20T00:08:37.639Z,5.60
2018-09-20T00:11:06.740Z,5.87
2018-09-20T00:13:35.715Z,5.70
2018-09-20T00:16:05.018Z,5.13
2018-09-20T00:18:34.256Z,5.50
2018-09-20T00:21:03.299Z,6.27
2018-09-20T00:23:32.453Z,6.13
2018-09-20T00:26:01.517Z,6.50
2018-09-20T00:28:30.555Z,5.37
2018-09-20T00:31:00.017Z,5.77
2018-09-20T00:33:28.961Z,5.50
2018-09-20T00:35:58.086Z,5.40
2018-09-20T00:38:27.302Z,5.57
2018-09-20T00:40:56.395Z,6.30
2018-09-20T00:43:26.147Z,5.70
2018-09-20T00:45:55.239Z,5.90
2018-09-20T00:48:24.257Z,6.13
2018-09-20T00:50:53.244Z,5.67
2018-09-20T00:53:22.477Z,5.60
2018-09-20T00:55:52.019Z,5.40
2018-09-20T00:58:21.215Z,5.90
2018-09-20T01:00:50.337Z,5.10
2018-09-20T01:03:19.551Z,5.77
2018-09-20T01:05:48.457Z,5.47
2018-09-20T01:08:17.712Z,5.30
2018-09-20T01:10:46.889Z,5.70
2018-09-20T01:13:16.197Z,5.37
2018-09-20T01:15:45.419Z,5.40
2018-09-20T01:18:14.635Z,5.53
2018-09-20T01:20:43.776Z,6.07
2018-09-20T01:23:12.966Z,5.13
2018-09-20T01:25:42.071Z,5.60
2018-09-20T01:28:11.182Z,5.77
2018-09-20T01:30:40.089Z,5.70
2018-09-20T01:33:09.234Z,5.93
2018-09-20T01:35:38.222Z,6.40
2018-09-20T01:38:07.341Z,6.27
2018-09-20T01:40:36.671Z,5.73
2018-09-20T01:43:05.778Z,5.40
2018-09-20T01:45:34.871Z,6.00
2018-09-20T01:48:03.998Z,6.07
2018-09-20T01:50:32.998Z,6.00
2018-09-20T01:53:01.996Z,5.40
2018-09-20T01:55:31.154Z,5.50
2018-09-20T01:58:00.230Z,5.97
2018-09-20T02:00:29.348Z,6.30
2018-09-20T02:02:58.673Z,5.90
2018-09-20T02:05:27.694Z,5.83
2018-09-20T02:07:57.757Z,5.60
2018-09-20T02:10:26.721Z,6.53
2018-09-20T02:12:55.739Z,6.27
2018-09-20T02:15:24.862Z,6.60
2018-09-20T02:17:54.281Z,6.57
2018-09-20T02:20:23.816Z,6.50
2018-09-20T02:22:52.818Z,6.27
2018-09-20T02:25:23.068Z,6.10
2018-09-20T02:27:52.138Z,6.00
2018-09-20T02:30:21.366Z,6.37
2018-09-20T02:32:50.399Z,6.03
2018-09-20T02:35:19.475Z,5.97
2018-09-20T02:37:48.756Z,5.20
2018-09-20T02:40:17.695Z,5.87
2018-09-20T02:42:46.621Z,6.20
2018-09-20T02:45:15.821Z,5.20
2018-09-20T02:47:44.846Z,5.47
2018-09-20T02:50:13.955Z,5.27
2018-09-20T02:52:44.263Z,5.00
2018-09-20T02:55:13.319Z,5.40
2018-09-20T02:57:43.052Z,5.50
2018-09-20T03:00:12.363Z,5.40
2018-09-20T03:02:41.370Z,6.27
2018-09-20T03:05:10.392Z,6.13
2018-09-20T03:07:39.486Z,5.83
2018-09-20T03:10:08.474Z,5.10
2018-09-20T03:12:37.601Z,6.27
2018-09-20T03:15:07.321Z,5.70
2018-09-20T03:17:36.563Z,5.70
2018-09-20T03:20:05.672Z,5.40
2018-09-20T03:22:34.568Z,4.97
2018-09-20T03:25:04.079Z,5.40
2018-09-20T03:27:34.092Z,5.27
2018-09-20T03:30:03.143Z,5.33
2018-09-20T03:32:32.804Z,5.10
2018-09-20T03:35:01.791Z,5.23
2018-09-20T03:37:30.809Z,5.47
2018-09-20T03:39:59.899Z,5.30
2018-09-20T03:42:28.885Z,5.57
2018-09-20T03:44:58.345Z,4.70
2018-09-20T03:47:27.541Z,5.07
2018-09-20T03:49:56.569Z,5.43
2018-09-20T03:52:25.579Z,6.00
2018-09-20T03:54:54.681Z,5.70
2018-09-20T03:57:23.699Z,6.27
2018-09-20T03:59:52.702Z,5.70
2018-09-20T04:02:21.846Z,6.70
2018-09-20T04:04:50.945Z,6.90
2018-09-20T04:07:19.928Z,6.60
2018-09-20T04:09:49.082Z,6.70
2018-09-20T04:12:18.261Z,6.13
2018-09-20T04:14:48.643Z,6.07
2018-09-20T04:17:17.721Z,5.40
2018-09-20T04:19:46.738Z,5.60
2018-09-20T04:22:15.972Z,6.47
2018-09-20T04:24:45.055Z,6.60
2018-09-20T04:27:14.279Z,6.00
2018-09-20T04:29:43.484Z,6.10
2018-09-20T04:32:14.084Z,6.10
2018-09-20T04:34:43.359Z,6.30
2018-09-20T04:37:12.357Z,5.77
2018-09-20T04:39:41.382Z,6.20
2018-09-20T04:42:10.833Z,6.10
2018-09-20T04:44:43.665Z,6.80
2018-09-20T04:47:12.809Z,6.17
2018-09-20T04:49:41.924Z,6.70
2018-09-20T04:52:11.041Z,6.90
2018-09-20T04:54:40.009Z,6.17
2018-09-20T04:57:10.103Z,7.03
2018-09-20T04:59:39.794Z,6.73
2018-09-20T05:02:08.919Z,7.33
2018-09-20T05:04:38.069Z,7.43
2018-09-20T05:07:07.341Z,7.40
2018-09-20T05:09:36.471Z,8.00
2018-09-20T05:12:05.583Z,9.23
2018-09-20T05:14:34.801Z,8.13
2018-09-20T05:17:03.999Z,8.40
2018-09-20T05:19:33.098Z,7.97
2018-09-20T05:22:03.884Z,7.43
2018-09-20T05:24:33.512Z,8.23
2018-09-20T05:27:02.714Z,8.10
2018-09-20T05:29:31.831Z,15.30
2018-09-20T05:32:00.935Z,10.43
2018-09-20T05:34:30.063Z,9.37
2018-09-20T05:36:59.166Z,16.20
2018-09-20T05:39:28.241Z,22.33
2018-09-20T05:41:57.387Z,8.00
2018-09-20T05:44:26.599Z,10.30
2018-09-20T05:46:55.898Z,10.80
2018-09-20T05:49:25.033Z,8.60
2018-09-20T05:51:54.956Z,8.43
2018-09-20T05:54:24.221Z,7.47
2018-09-20T05:56:53.911Z,8.87
2018-09-20T05:59:23.075Z,7.90
2018-09-20T06:01:52.325Z,8.10
2018-09-20T06:04:23.053Z,8.20
2018-09-20T06:06:52.307Z,7.63
2018-09-20T06:09:21.410Z,7.97
2018-09-20T06:11:50.533Z,7.50
2018-09-20T06:14:19.757Z,6.83
2018-09-20T06:16:49.106Z,6.67
2018-09-20T06:19:18.175Z,7.40
2018-09-20T06:21:47.267Z,6.77
2018-09-20T06:24:16.519Z,6.33
2018-09-20T06:26:45.617Z,6.33
2018-09-20T06:29:14.950Z,6.63
2018-09-20T06:31:43.735Z,6.27
2018-09-20T06:34:12.495Z,6.00
2018-09-20T06:36:41.671Z,5.90
2018-09-20T06:39:12.318Z,5.37
2018-09-20T06:41:42.292Z,5.87
2018-09-20T06:44:51.927Z,7.57
2018-09-20T06:47:22.167Z,5.13
2018-09-20T06:49:50.986Z,5.50
2018-09-20T06:52:19.760Z,5.47
2018-09-20T06:54:48.514Z,5.93
2018-09-20T06:57:17.347Z,7.20
2018-09-20T06:59:47.499Z,6.60
2018-09-20T07:02:16.294Z,6.50
2018-09-20T07:04:45.390Z,6.07
2018-09-20T07:07:14.627Z,6.10
2018-09-20T07:09:43.404Z,26.00
2018-09-20T07:12:12.241Z,6.20
2018-09-20T07:14:41.038Z,5.40
2018-09-20T07:17:09.873Z,6.80
2018-09-20T07:19:38.681Z,6.30
2018-09-20T07:22:07.961Z,6.20
2018-09-20T07:24:38.723Z,6.40
2018-09-20T07:27:08.018Z,5.43
2018-09-20T07:29:37.265Z,4.83
2018-09-20T07:32:06.260Z,5.87
2018-09-20T07:34:35.496Z,11.37
2018-09-20T07:37:04.837Z,5.33
2018-09-20T07:39:33.883Z,5.30
2018-09-20T07:42:03.010Z,5.30
2018-09-20T07:44:31.774Z,4.90
2018-09-20T07:47:00.572Z,4.67
2018-09-20T07:49:29.335Z,5.00
2018-09-20T07:51:58.110Z,5.00
2018-09-20T07:54:27.166Z,5.50
2018-09-20T07:56:55.964Z,5.57
2018-09-20T07:59:24.735Z,5.17
2018-09-20T08:01:53.580Z,6.00
2018-09-20T08:04:22.478Z,8.73
2018-09-20T08:06:51.303Z,6.37
2018-09-20T08:09:20.102Z,6.90
2018-09-20T08:11:48.870Z,6.87
2018-09-20T08:14:17.721Z,5.53
2018-09-20T08:16:46.487Z,6.23
2018-09-20T08:19:15.934Z,5.87
2018-09-20T08:21:44.742Z,5.40
2018-09-20T08:24:13.514Z,8.40
2018-09-20T08:26:42.248Z,4.60
2018-09-20T08:29:11.026Z,4.50
2018-09-20T08:31:40.298Z,4.27
2018-09-20T08:34:09.085Z,3.70
2018-09-20T08:36:37.859Z,4.43
2018-09-20T08:39:09.296Z,10.57
2018-09-20T08:41:38.164Z,5.57
2018-09-20T08:44:09.457Z,3.80
2018-09-20T08:46:38.285Z,18.70
2018-09-20T08:49:07.259Z,5.07
2018-09-20T08:51:36.230Z,7.53
2018-09-20T08:54:05.256Z,5.83
2018-09-20T08:56:34.351Z,5.87
2018-09-20T08:59:03.201Z,9.03
2018-09-20T09:01:32.009Z,5.50
2018-09-20T09:04:00.800Z,4.97
2018-09-20T09:06:29.603Z,7.03
2018-09-20T09:08:59.115Z,15.60
2018-09-20T09:11:27.890Z,7.60
2018-09-20T09:13:56.681Z,5.57
2018-09-20T09:16:25.512Z,10.30
2018-09-20T09:18:54.282Z,8.37
2018-09-20T09:21:23.294Z,5.63
2018-09-20T09:23:52.442Z,4.30
2018-09-20T09:26:21.548Z,4.20
2018-09-20T09:28:50.678Z,3.90
2018-09-20T09:31:19.891Z,8.80
2018-09-20T09:33:51.678Z,5.90
2018-09-20T09:36:20.887Z,4.27
2018-09-20T09:38:49.882Z,2.90
2018-09-20T09:41:18.988Z,3.60
2018-09-20T09:43:48.009Z,13.10
2018-09-20T09:46:19.721Z,3.00
2018-09-20T09:48:48.906Z,6.33
2018-09-20T09:51:17.711Z,6.00
2018-09-20T09:53:46.585Z,12.93
2018-09-20T09:56:15.352Z,4.00
2018-09-20T09:58:44.909Z,3.73
2018-09-20T10:01:15.106Z,2.47
2018-09-20T10:03:44.086Z,2.40
2018-09-20T10:06:13.687Z,2.20
2018-09-20T10:08:42.555Z,2.40
2018-09-20T10:11:11.669Z,2.93
2018-09-20T10:13:40.466Z,3.27
2018-09-20T10:16:09.262Z,3.10
2018-09-20T10:18:38.055Z,4.60
2018-09-20T10:21:06.911Z,2.83
2018-09-20T10:23:36.794Z,2.97
2018-09-20T10:26:05.597Z,2.70
2018-09-20T10:28:34.408Z,2.10
2018-09-20T10:31:03.224Z,2.70
2018-09-20T10:33:32.029Z,2.30
2018-09-20T10:36:01.903Z,4.00
2018-09-20T10:38:30.707Z,5.07
2018-09-20T10:40:59.500Z,2.37
2018-09-20T10:43:28.257Z,1.80
2018-09-20T10:45:57.078Z,3.30
2018-09-20T10:48:26.044Z,2.40
2018-09-20T10:50:54.840Z,3.53
2018-09-20T10:53:23.666Z,1.83
2018-09-20T10:55:52.458Z,4.00
2018-09-20T10:58:21.493Z,3.00
2018-09-20T11:00:51.643Z,2.40
2018-09-20T11:03:20.496Z,2.20
2018-09-20T11:05:49.298Z,3.07
2018-09-20T11:08:18.062Z,2.60
2018-09-20T11:10:46.866Z,1.80
2018-09-20T11:13:15.787Z,2.57
2018-09-20T11:15:44.619Z,2.23
2018-09-20T11:18:13.420Z,1.83
2018-09-20T11:20:42.200Z,2.10
2018-09-20T11:23:10.986Z,1.90
2018-09-20T11:25:40.774Z,2.07
2018-09-20T11:28:09.556Z,2.13
2018-09-20T11:30:38.541Z,2.10
2018-09-20T11:33:07.618Z,2.97
2018-09-20T11:35:36.652Z,4.33
2018-09-20T11:38:07.002Z,3.50
2018-09-20T11:40:36.320Z,2.20
2018-09-20T11:43:05.434Z,4.80
2018-09-20T11:45:34.530Z,4.27
2018-09-20T11:48:03.461Z,2.27
2018-09-20T11:50:33.132Z,4.83
2018-09-20T11:53:02.298Z,2.30
2018-09-20T11:55:31.605Z,2.33
2018-09-20T11:58:00.626Z,2.40
2018-09-20T12:00:29.750Z,5.40
2018-09-20T12:02:58.903Z,5.30
2018-09-20T12:05:27.962Z,3.60
2018-09-20T12:07:57.003Z,2.80
2018-09-20T12:10:26.189Z,2.80
2018-09-20T12:12:55.192Z,4.00
2018-09-20T12:15:29.006Z,2.97
2018-09-20T12:17:58.225Z,2.60
2018-09-20T12:20:27.230Z,2.33
2018-09-20T12:22:56.415Z,2.10
2018-09-20T12:25:25.429Z,1.90
2018-09-20T12:27:54.526Z,3.93
2018-09-20T12:30:23.583Z,5.43
2018-09-20T12:32:52.523Z,4.50
2018-09-20T12:35:21.736Z,4.17
2018-09-20T12:37:51.763Z,2.40
2018-09-20T12:40:21.089Z,3.93
2018-09-20T12:42:50.296Z,2.80
2018-09-20T12:45:19.513Z,9.83
2018-09-20T12:47:48.819Z,2.10
2018-09-20T12:50:17.911Z,1.93
2018-09-20T12:52:48.031Z,1.67
2018-09-20T12:55:17.091Z,1.80
2018-09-20T12:57:46.183Z,1.57
2018-09-20T13:00:15.512Z,2.47
2018-09-20T13:02:44.515Z,1.73
2018-09-20T13:05:13.392Z,1.87
2018-09-20T13:07:42.208Z,2.03
2018-09-20T13:10:11.022Z,1.40
2018-09-20T13:12:39.833Z,1.73
2018-09-20T13:15:08.644Z,1.50
2018-09-20T13:17:37.446Z,2.50
2018-09-20T13:20:06.366Z,2.33
2018-09-20T13:22:35.135Z,1.83
2018-09-20T13:25:03.986Z,2.70
2018-09-20T13:27:33.079Z,1.77
2018-09-20T13:30:03.669Z,1.40
2018-09-20T13:32:32.658Z,1.30
2018-09-20T13:35:01.772Z,2.23
2018-09-20T13:37:30.879Z,1.53
2018-09-20T13:40:00.134Z,1.50
2018-09-20T13:42:29.429Z,1.60
2018-09-20T13:44:58.321Z,1.97
2018-09-20T13:47:27.422Z,1.50
2018-09-20T13:49:56.509Z,1.87
2018-09-20T13:52:25.644Z,1.60
2018-09-20T13:54:55.624Z,2.00
2018-09-20T13:57:24.787Z,1.80
2018-09-20T13:59:54.126Z,2.10
2018-09-20T14:02:23.325Z,1.80
2018-09-20T14:04:52.450Z,1.80
2018-09-20T14:07:21.546Z,2.00
2018-09-20T14:09:50.473Z,2.40
2018-09-20T14:12:19.473Z,2.33
2018-09-20T14:14:49.102Z,1.97
2018-09-20T14:17:18.310Z,2.10
2018-09-20T14:19:48.282Z,1.80
2018-09-20T14:22:17.453Z,1.60
2018-09-20T14:24:49.983Z,1.67
2018-09-20T14:27:18.997Z,1.90
2018-09-20T14:29:48.065Z,1.70
2018-09-20T14:32:17.187Z,1.73
2018-09-20T14:34:46.366Z,1.80
2018-09-20T14:37:15.746Z,1.90
2018-09-20T14:39:44.812Z,2.80
2018-09-20T14:42:13.936Z,3.37
2018-09-20T14:44:42.957Z,2.10
2018-09-20T14:47:12.062Z,1.50
2018-09-20T14:49:41.174Z,1.70
2018-09-20T14:52:10.191Z,1.60
2018-09-20T14:54:42.351Z,1.70
2018-09-20T14:57:11.539Z,1.80
2018-09-20T14:59:40.627Z,2.00
2018-09-20T15:02:09.611Z,1.90
2018-09-20T15:04:38.419Z,2.50
2018-09-20T15:07:08.251Z,2.80
2018-09-20T15:09:37.360Z,5.60
2018-09-20T15:12:06.354Z,2.30
2018-09-20T15:14:35.391Z,1.60
2018-09-20T15:17:04.606Z,2.40
2018-09-20T15:19:34.032Z,1.83
2018-09-20T15:22:03.245Z,1.80
2018-09-20T15:24:32.470Z,1.90
2018-09-20T15:27:01.881Z,1.90
2018-09-20T15:29:31.186Z,1.87
2018-09-20T15:32:00.298Z,1.80
2018-09-20T15:34:29.318Z,1.90
2018-09-20T15:36:58.132Z,1.93
2018-09-20T15:39:26.979Z,2.30
2018-09-20T15:41:55.791Z,2.10
2018-09-20T15:44:24.701Z,2.10
2018-09-20T15:46:53.575Z,2.43
2018-09-20T15:49:22.388Z,2.40
2018-09-20T15:51:51.494Z,9.57
2018-09-20T15:54:20.545Z,5.47
2018-09-20T15:56:50.441Z,2.37
2018-09-20T15:59:19.518Z,2.80
2018-09-20T16:01:48.543Z,2.70
2018-09-20T16:04:17.708Z,2.20
2018-09-20T16:06:46.997Z,1.73
2018-09-20T16:09:16.277Z,2.10
2018-09-20T16:11:45.398Z,2.00
2018-09-20T16:14:14.616Z,1.90
2018-09-20T16:16:44.839Z,2.40
2018-09-20T16:19:14.049Z,3.80
2018-09-20T16:21:43.382Z,5.53
2018-09-20T16:24:12.366Z,8.50
2018-09-20T16:26:41.523Z,5.90
2018-09-20T16:29:25.937Z,4.23
2018-09-20T16:32:13.893Z,4.40
2018-09-20T16:34:59.154Z,3.20
2018-09-20T16:38:11.224Z,3.67
2018-09-20T16:40:44.793Z,6.83
2018-09-20T16:43:13.808Z,3.07
2018-09-20T16:45:42.921Z,3.80
2018-09-20T16:48:12.164Z,7.17
2018-09-20T16:50:44.755Z,5.10
2018-09-20T16:53:14.021Z,5.70
2018-09-20T16:55:44.492Z,4.20
2018-09-20T16:58:13.741Z,5.03
2018-09-20T17:00:42.526Z,4.23
2018-09-20T17:03:11.326Z,5.37
2018-09-20T17:05:40.137Z,4.00
2018-09-20T17:08:12.292Z,3.60
2018-09-20T17:10:41.181Z,3.33
2018-09-20T17:13:10.016Z,4.13
2018-09-20T17:15:38.905Z,4.00
2018-09-20T17:18:07.709Z,3.80
2018-09-20T17:20:36.576Z,2.90
2018-09-20T17:23:05.669Z,2.87
2018-09-20T17:25:34.765Z,3.17
2018-09-20T17:28:03.563Z,3.57
2018-09-20T17:30:32.386Z,3.50
2018-09-20T17:33:02.940Z,10.60
2018-09-20T17:35:32.130Z,10.20
2018-09-20T17:38:02.119Z,15.03
2018-09-20T17:40:33.500Z,16.00
2018-09-20T17:43:05.572Z,17.87
2018-09-20T17:45:34.932Z,14.23
2018-09-20T17:48:03.771Z,13.10
2018-09-20T17:50:32.572Z,12.20
2018-09-20T17:53:01.810Z,5.80
2018-09-20T17:55:31.083Z,6.20
2018-09-20T17:58:02.470Z,5.57
2018-09-20T18:00:31.320Z,5.60
2018-09-20T18:03:00.220Z,5.60
2018-09-20T18:05:29.065Z,5.80
2018-09-20T18:07:57.914Z,3.60
2018-09-20T18:10:27.214Z,3.00
2018-09-20T18:12:56.046Z,3.20
2018-09-20T18:15:24.862Z,3.10
2018-09-20T18:17:53.852Z,3.60
2018-09-20T18:20:22.615Z,3.60
2018-09-20T18:22:51.860Z,3.50
2018-09-20T18:25:20.658Z,2.53
2018-09-20T18:27:49.773Z,3.70
2018-09-20T18:30:19.082Z,4.57
2018-09-20T18:32:48.201Z,3.53
2018-09-20T18:35:17.542Z,3.30
2018-09-20T18:37:46.910Z,3.57
2018-09-20T18:40:15.735Z,4.73
2018-09-20T18:42:44.537Z,3.60
2018-09-20T18:45:13.308Z,3.40
2018-09-20T18:47:42.145Z,2.80
2018-09-20T18:50:11.651Z,2.90
2018-09-20T18:52:40.462Z,3.17
2018-09-20T18:55:09.268Z,4.03
2018-09-20T18:57:38.072Z,10.50
2018-09-20T19:00:07.119Z,3.63
2018-09-20T19:02:35.964Z,2.73
2018-09-20T19:05:04.949Z,2.77
2018-09-20T19:07:33.846Z,2.53
2018-09-20T19:10:03.057Z,2.40
2018-09-20T19:12:32.159Z,2.50
2018-09-20T19:15:02.100Z,2.77
2018-09-20T19:17:32.037Z,4.40
2018-09-20T19:20:01.228Z,5.43
2018-09-20T19:22:30.451Z,3.70
2018-09-20T19:24:59.240Z,3.53
2018-09-20T19:27:28.052Z,6.43
2018-09-20T19:29:56.874Z,4.50
2018-09-20T19:32:25.708Z,4.30
2018-09-20T19:34:54.549Z,2.80
2018-09-20T19:37:23.386Z,3.30
2018-09-20T19:39:52.183Z,3.70
2018-09-20T19:42:21.060Z,2.57
2018-09-20T19:44:49.830Z,2.80
2018-09-20T19:47:18.913Z,3.63
2018-09-20T19:49:47.706Z,2.40
2018-09-20T19:52:16.556Z,2.90
2018-09-20T19:54:45.650Z,2.80
2018-09-20T19:57:14.846Z,2.60
2018-09-20T19:59:44.103Z,2.53
2018-09-20T20:02:13.558Z,2.80
2018-09-20T20:04:42.602Z,2.83
2018-09-20T20:07:11.717Z,2.80
2018-09-20T20:09:40.921Z,2.40
2018-09-20T20:12:10.064Z,2.90
2018-09-20T20:14:38.824Z,2.53
2018-09-20T20:17:07.650Z,2.70
2018-09-20T20:19:36.589Z,3.17
2018-09-20T20:22:05.987Z,4.10
2018-09-20T20:24:34.792Z,2.43
2018-09-20T20:27:03.628Z,2.67
2018-09-20T20:29:32.466Z,2.80
2018-09-20T20:32:01.320Z,3.30
2018-09-20T20:34:30.164Z,3.50
2018-09-20T20:37:00.068Z,2.53
2018-09-20T20:39:30.026Z,3.23
2018-09-20T20:41:59.191Z,2.97
2018-09-20T20:44:28.505Z,2.77
2018-09-20T20:46:57.514Z,3.20
2018-09-20T20:49:26.716Z,5.70
2018-09-20T20:51:55.842Z,3.93
2018-09-20T20:54:24.970Z,4.60
2018-09-20T20:56:54.058Z,2.97
2018-09-20T20:59:23.181Z,2.73
2018-09-20T21:01:52.203Z,3.17
2018-09-20T21:04:21.478Z,2.73
2018-09-20T21:06:50.485Z,2.70
2018-09-20T21:09:19.412Z,3.23
2018-09-20T21:11:48.547Z,3.40
2018-09-20T21:14:17.658Z,4.00
2018-09-20T21:16:46.770Z,3.17
2018-09-20T21:19:15.748Z,3.50
2018-09-20T21:21:44.779Z,4.87
2018-09-20T21:24:13.908Z,4.23
2018-09-20T21:26:42.923Z,5.00
2018-09-20T21:29:12.123Z,3.50
2018-09-20T21:31:41.355Z,3.87
2018-09-20T21:34:10.562Z,4.30
2018-09-20T21:36:39.671Z,2.90
2018-09-20T21:39:10.773Z,3.20
2018-09-20T21:41:41.386Z,3.17
2018-09-20T21:44:10.600Z,2.57
2018-09-20T21:46:39.589Z,2.60
2018-09-20T21:49:08.718Z,3.10
2018-09-20T21:51:37.816Z,3.00
2018-09-20T21:54:08.385Z,3.50
2018-09-20T21:56:37.697Z,3.27
2018-09-20T21:59:07.004Z,3.57
2018-09-20T22:01:41.307Z,3.13
2018-09-20T22:04:10.335Z,3.20
2018-09-20T22:06:39.357Z,3.10
2018-09-20T22:09:10.624Z,3.40
2018-09-20T22:11:40.930Z,3.53
2018-09-20T22:14:10.083Z,3.23
2018-09-20T22:16:39.578Z,3.33
2018-09-20T22:19:09.446Z,3.07
2018-09-20T22:21:38.538Z,3.37
2018-09-20T22:24:07.326Z,3.03
2018-09-20T22:26:36.134Z,3.33
2018-09-20T22:29:05.063Z,3.10
2018-09-20T22:31:33.866Z,3.27
2018-09-20T22:34:02.881Z,4.30
2018-09-20T22:36:32.016Z,2.70
2018-09-20T22:39:03.091Z,3.90
2018-09-20T22:41:32.158Z,3.20
2018-09-20T22:44:01.381Z,3.47
2018-09-20T22:46:30.442Z,2.60
2018-09-20T22:48:59.593Z,2.93
2018-09-20T22:51:28.774Z,2.60
2018-09-20T22:53:58.052Z,4.10
2018-09-20T22:56:27.153Z,2.70
2018-09-20T22:58:56.370Z,2.60
2018-09-20T23:01:26.282Z,2.60
2018-09-20T23:03:56.547Z,2.73
2018-09-20T23:06:25.617Z,2.60
2018-09-20T23:08:54.554Z,2.73
2018-09-20T23:11:23.654Z,3.30
2018-09-20T23:13:52.782Z,2.60
2018-09-20T23:16:24.606Z,2.73
2018-09-20T23:18:53.772Z,2.97
2018-09-20T23:21:22.871Z,2.63
2018-09-20T23:23:51.802Z,3.03
2018-09-20T23:26:20.992Z,2.60
2018-09-20T23:28:50.013Z,2.77
2018-09-20T23:31:19.126Z,2.73
2018-09-20T23:33:49.011Z,2.40
2018-09-20T23:36:18.061Z,2.50
2018-09-20T23:38:47.076Z,3.20
2018-09-20T23:41:16.193Z,3.10
2018-09-20T23:43:45.309Z,2.60
2018-09-20T23:46:14.401Z,3.10
2018-09-20T23:48:43.321Z,2.63
2018-09-20T23:51:12.861Z,3.03
2018-09-20T23:53:42.078Z,2.50
2018-09-20T23:56:11.283Z,2.70
2018-09-20T23:58:40.502Z,2.97
